sensor_id;sensor_type;location;lat;lon;timestamp;P1;durP1;ratioP1;P2;durP2;ratioP2
43682;SDS011;29285;52.128;21.060;2023-10-19T13:45:05;16.50;;;10.10;;
43682;SDS011;29285;52.128;21.060;2023-10-19T13:50:07;12.70;;;8.80;;
43682;SDS011;29285;52.128;21.060;2023-10-19T13:55:09;12.50;;;8.30;;
43682;SDS011;29285;52.128;21.060;2023-10-19T14:00:14;13.80;;;8.80;;
43682;SDS011;29285;52.128;21.060;2023-10-19T15:26:44;13.00;;;7.70;;
43682;SDS011;29285;52.128;21.060;2023-10-19T15:31:45;14.20;;;7.90;;
43682;SDS011;29285;52.128;21.060;2023-10-19T15:36:46;14.10;;;8.50;;
43682;SDS011;29285;52.128;21.060;2023-10-19T15:41:48;14.80;;;8.50;;
43682;SDS011;29285;52.128;21.060;2023-10-19T15:46:49;13.60;;;8.90;;
43682;SDS011;29285;52.128;21.060;2023-10-19T15:51:51;14.20;;;8.40;;
43682;SDS011;29285;52.128;21.060;2023-10-19T15:56:52;11.50;;;7.50;;
43682;SDS011;29285;52.128;21.060;2023-10-19T16:01:53;13.90;;;8.00;;
43682;SDS011;29285;52.128;21.060;2023-10-19T16:06:55;14.10;;;8.50;;
43682;SDS011;29285;52.128;21.060;2023-10-19T16:11:56;13.90;;;9.20;;
43682;SDS011;29285;52.128;21.060;2023-10-19T16:16:58;14.10;;;8.50;;
43682;SDS011;29285;52.128;21.060;2023-10-19T16:21:59;11.80;;;9.60;;
43682;SDS011;29285;52.128;21.060;2023-10-19T16:27:00;16.30;;;9.80;;
43682;SDS011;29285;52.128;21.060;2023-10-19T16:32:03;15.80;;;9.20;;
43682;SDS011;29285;52.128;21.060;2023-10-19T16:37:05;16.10;;;10.40;;
43682;SDS011;29285;52.128;21.060;2023-10-19T16:42:06;15.70;;;9.30;;
43682;SDS011;29285;52.128;21.060;2023-10-19T16:47:09;15.10;;;11.20;;
43682;SDS011;29285;52.128;21.060;2023-10-19T16:52:12;15.00;;;11.70;;
43682;SDS011;29285;52.128;21.060;2023-10-19T16:57:13;17.20;;;10.70;;
43682;SDS011;29285;52.128;21.060;2023-10-19T17:02:17;14.10;;;10.70;;
43682;SDS011;29285;52.128;21.060;2023-10-19T17:07:19;13.50;;;10.50;;
43682;SDS011;29285;52.128;21.060;2023-10-19T17:12:20;16.60;;;10.60;;
43682;SDS011;29285;52.128;21.060;2023-10-19T17:17:21;17.90;;;10.50;;
43682;SDS011;29285;52.128;21.060;2023-10-19T17:22:23;18.00;;;11.30;;
43682;SDS011;29285;52.128;21.060;2023-10-19T17:27:24;22.70;;;12.70;;
43682;SDS011;29285;52.128;21.060;2023-10-19T17:32:25;15.50;;;11.90;;
43682;SDS011;29285;52.128;21.060;2023-10-19T17:37:28;17.20;;;12.60;;
43682;SDS011;29285;52.128;21.060;2023-10-19T17:42:30;19.60;;;12.00;;
43682;SDS011;29285;52.128;21.060;2023-10-19T19:10:05;19.20;;;13.10;;
43682;SDS011;29285;52.128;21.060;2023-10-19T19:15:08;20.90;;;13.60;;
43682;SDS011;29285;52.128;21.060;2023-10-19T19:20:11;17.20;;;12.70;;
43682;SDS011;29285;52.128;21.060;2023-10-19T19:25:12;17.00;;;12.60;;
43682;SDS011;29285;52.128;21.060;2023-10-19T19:30:14;19.10;;;13.60;;
43682;SDS011;29285;52.128;21.060;2023-10-19T19:35:15;20.00;;;12.70;;
43682;SDS011;29285;52.128;21.060;2023-10-19T19:40:17;18.40;;;12.30;;
43682;SDS011;29285;52.128;21.060;2023-10-19T19:45:23;20.60;;;13.30;;
43682;SDS011;29285;52.128;21.060;2023-10-19T19:50:24;19.20;;;12.80;;
43682;SDS011;29285;52.128;21.060;2023-10-19T19:55:26;17.60;;;12.00;;
43682;SDS011;29285;52.128;21.060;2023-10-19T20:00:28;16.80;;;11.20;;
43682;SDS011;29285;52.128;21.060;2023-10-19T20:05:31;21.60;;;13.80;;
43682;SDS011;29285;52.128;21.060;2023-10-19T20:10:40;23.80;;;13.10;;
43682;SDS011;29285;52.128;21.060;2023-10-19T20:15:45;19.60;;;13.00;;
43682;SDS011;29285;52.128;21.060;2023-10-19T20:20:46;22.60;;;13.60;;
43682;SDS011;29285;52.128;21.060;2023-10-19T20:25:47;19.10;;;13.70;;
43682;SDS011;29285;52.128;21.060;2023-10-19T20:30:49;25.00;;;14.80;;
43682;SDS011;29285;52.128;21.060;2023-10-19T20:35:50;21.70;;;15.40;;
43682;SDS011;29285;52.128;21.060;2023-10-19T20:40:53;23.40;;;14.90;;
43682;SDS011;29285;52.128;21.060;2023-10-19T22:11:27;21.30;;;16.30;;
43682;SDS011;29285;52.128;21.060;2023-10-19T22:16:28;18.20;;;13.70;;
43682;SDS011;29285;52.128;21.060;2023-10-19T22:21:29;19.10;;;13.70;;
43682;SDS011;29285;52.128;21.060;2023-10-19T22:26:32;22.00;;;16.20;;
43682;SDS011;29285;52.128;21.060;2023-10-19T22:31:34;18.60;;;14.50;;
43682;SDS011;29285;52.128;21.060;2023-10-19T22:36:36;19.60;;;15.10;;
43682;SDS011;29285;52.128;21.060;2023-10-19T22:41:37;18.40;;;14.00;;
43682;SDS011;29285;52.128;21.060;2023-10-19T22:46:39;17.70;;;15.10;;
43682;SDS011;29285;52.128;21.060;2023-10-19T22:51:40;19.80;;;13.60;;
43682;SDS011;29285;52.128;21.060;2023-10-19T22:56:42;17.40;;;13.60;;
43682;SDS011;29285;52.128;21.060;2023-10-19T23:01:44;17.50;;;13.30;;
43682;SDS011;29285;52.128;21.060;2023-10-19T23:06:45;15.70;;;13.20;;
43682;SDS011;29285;52.128;21.060;2023-10-19T23:11:46;18.00;;;13.60;;
43682;SDS011;29285;52.128;21.060;2023-10-19T23:17:03;18.60;;;13.50;;
43682;SDS011;29285;52.128;21.060;2023-10-19T23:22:09;18.40;;;12.60;;
43682;SDS011;29285;52.128;21.060;2023-10-19T23:27:10;14.00;;;12.50;;
43682;SDS011;29285;52.128;21.060;2023-10-19T23:32:12;16.70;;;12.80;;
43682;SDS011;29285;52.128;21.060;2023-10-19T23:37:17;15.70;;;12.50;;
43682;SDS011;29285;52.128;21.060;2023-10-19T23:42:18;14.70;;;12.60;;
43682;SDS011;29285;52.128;21.060;2023-10-19T23:47:20;15.80;;;12.30;;
43682;SDS011;29285;52.128;21.060;2023-10-19T23:52:21;16.60;;;12.10;;
43682;SDS011;29285;52.128;21.060;2023-10-19T23:57:22;14.90;;;11.80;;
